Airfield :
LOGIN :

Register | Disclaimer

   EN    FR    IT 

 










Legend :    VFR   Marginal VFR   IFR   Intensive IFR   Very Intensive IFR
Visi :
Ceiling :
>= 8 km
>= 3000ft
5 to 8 km
1000 to 3000 ft
1500m to 5 km
500 to 1000 ft
800 to 1500m
200 to 500 ft
< 800m
< 200 ft
Symbols :   Thunderstorms  Fog  Heavy snow  Heavy precipitations  Wind > 20 kt
SIGMETs :     Misc.  Thunderstorms  Icing  Turbulence  Mountain Waves  Volcanic Ashes







- Airport Elevation : 14 ft
- IATA code : BRE


EDDW - Bremen Neuenland

CURRENT METAR :
  • 200920Z 26014KT 9999 BKN015 06/04 Q1015 NOSIG

EXPIRED METARs :
  • 200850Z 26012KT 9999 SCT012 BKN033 06/04 Q1015 NOSIG
  • 200820Z 24009KT 9999 SCT011 BKN029 05/04 Q1015 NOSIG
  • 200750Z 25010KT 9999 -RA FEW008 BKN030 05/04 Q1015 NOSIG
  • 200720Z 25011KT 9999 -RA FEW008 BKN031 05/04 Q1015 NOSIG
  • 200650Z 24007KT 9999 -RA FEW008 BKN038 05/04 Q1015 NOSIG

TAF TAF EDDW
Valid from the 20 at 06:00 until the 21 at 06:00 UTC


200500Z 2006/2106 24008KT 9999 FEW020 BKN035
TEMPO 2006/2008 28013KT
TEMPO 2008/2015 26013KT BKN010
PROB40
TEMPO 2010/2015 4500 -RADZ BKN009
FM201500 21006KT 6000 SCT005 OVC008
TEMPO 2015/2106 2000 -DZRA BR OVC003
BECMG 2019/2021 VRB03KT
No reported NOTAMs for that airfield.



MET'MAP, your aeronautical weather chart ! - Copyright ORBIFLY December 2007 - Disclaimer

ORBIFLY MET'MAP TEAM :

Programming & Development : Alexandra Zaïnal
Concept & Development : Baudouin d'Aumeries
Co-Development & Prog : Marc-Olivier Méhu
Technical & hardware support : Manuel Goepfert

Contact : metmap@orbifly.com




SOURCES & CREDITS :

   NOAA